sensor_id;sensor_type;location;lat;lon;timestamp;temperature;humidity
23813;DHT22;12087;45.190;5.688;2023-07-13T00:00:04;22.70;99.90
23813;DHT22;12087;45.190;5.688;2023-07-13T00:05:31;22.70;99.90
23813;DHT22;12087;45.190;5.688;2023-07-13T00:10:53;22.70;99.90
23813;DHT22;12087;45.190;5.688;2023-07-13T00:16:16;22.70;99.90
23813;DHT22;12087;45.190;5.688;2023-07-13T00:21:41;22.70;99.90
23813;DHT22;12087;45.190;5.688;2023-07-13T00:27:04;22.60;99.90
23813;DHT22;12087;45.190;5.688;2023-07-13T00:32:26;22.70;99.90
23813;DHT22;12087;45.190;5.688;2023-07-13T00:37:51;22.60;99.90
23813;DHT22;12087;45.190;5.688;2023-07-13T00:43:16;22.60;99.90
23813;DHT22;12087;45.190;5.688;2023-07-13T00:48:39;22.60;99.90
23813;DHT22;12087;45.190;5.688;2023-07-13T00:54:06;22.60;99.90
23813;DHT22;12087;45.190;5.688;2023-07-13T00:59:30;22.60;99.90
23813;DHT22;12087;45.190;5.688;2023-07-13T01:04:52;22.70;99.90
23813;DHT22;12087;45.190;5.688;2023-07-13T01:10:16;22.70;99.90
23813;DHT22;12087;45.190;5.688;2023-07-13T01:15:41;22.60;99.90
23813;DHT22;12087;45.190;5.688;2023-07-13T01:21:05;22.60;99.90
23813;DHT22;12087;45.190;5.688;2023-07-13T01:26:27;22.60;99.90
23813;DHT22;12087;45.190;5.688;2023-07-13T01:31:50;22.60;99.90
23813;DHT22;12087;45.190;5.688;2023-07-13T01:37:13;22.60;99.90
23813;DHT22;12087;45.190;5.688;2023-07-13T01:42:37;22.50;99.90
23813;DHT22;12087;45.190;5.688;2023-07-13T01:47:59;22.50;99.90
23813;DHT22;12087;45.190;5.688;2023-07-13T01:53:23;22.50;99.90
23813;DHT22;12087;45.190;5.688;2023-07-13T01:58:45;22.40;99.90
23813;DHT22;12087;45.190;5.688;2023-07-13T02:04:08;22.40;99.90
23813;DHT22;12087;45.190;5.688;2023-07-13T02:09:33;22.40;99.90
23813;DHT22;12087;45.190;5.688;2023-07-13T02:14:55;22.30;99.90
23813;DHT22;12087;45.190;5.688;2023-07-13T02:20:17;22.30;99.90
23813;DHT22;12087;45.190;5.688;2023-07-13T02:25:41;22.20;99.90
23813;DHT22;12087;45.190;5.688;2023-07-13T02:31:07;22.20;99.90
23813;DHT22;12087;45.190;5.688;2023-07-13T02:36:30;22.20;99.90
23813;DHT22;12087;45.190;5.688;2023-07-13T02:41:54;22.00;99.90
23813;DHT22;12087;45.190;5.688;2023-07-13T02:47:16;22.00;99.90
23813;DHT22;12087;45.190;5.688;2023-07-13T02:52:38;22.00;99.90
23813;DHT22;12087;45.190;5.688;2023-07-13T02:58:02;21.90;99.90
23813;DHT22;12087;45.190;5.688;2023-07-13T03:03:24;21.80;99.90
23813;DHT22;12087;45.190;5.688;2023-07-13T03:08:48;21.80;99.90
23813;DHT22;12087;45.190;5.688;2023-07-13T03:14:13;21.70;99.90
23813;DHT22;12087;45.190;5.688;2023-07-13T03:19:35;21.70;99.90
23813;DHT22;12087;45.190;5.688;2023-07-13T03:24:58;21.70;99.90
23813;DHT22;12087;45.190;5.688;2023-07-13T03:30:22;21.60;99.90
23813;DHT22;12087;45.190;5.688;2023-07-13T03:35:44;21.60;99.90
23813;DHT22;12087;45.190;5.688;2023-07-13T03:41:07;21.60;99.90
23813;DHT22;12087;45.190;5.688;2023-07-13T03:46:31;21.60;99.90
23813;DHT22;12087;45.190;5.688;2023-07-13T03:51:54;21.50;99.90
23813;DHT22;12087;45.190;5.688;2023-07-13T03:57:16;21.40;99.90
23813;DHT22;12087;45.190;5.688;2023-07-13T04:02:40;21.30;99.90
23813;DHT22;12087;45.190;5.688;2023-07-13T04:08:02;21.20;99.90
23813;DHT22;12087;45.190;5.688;2023-07-13T04:13:24;21.20;99.90
23813;DHT22;12087;45.190;5.688;2023-07-13T04:18:49;21.20;99.90
23813;DHT22;12087;45.190;5.688;2023-07-13T04:24:15;21.20;99.90
23813;DHT22;12087;45.190;5.688;2023-07-13T04:29:38;21.20;99.90
23813;DHT22;12087;45.190;5.688;2023-07-13T04:35:02;21.20;99.90
23813;DHT22;12087;45.190;5.688;2023-07-13T04:40:27;21.30;99.90
23813;DHT22;12087;45.190;5.688;2023-07-13T04:45:50;21.20;99.90
23813;DHT22;12087;45.190;5.688;2023-07-13T04:51:14;21.20;99.90
23813;DHT22;12087;45.190;5.688;2023-07-13T04:56:36;21.10;99.90
23813;DHT22;12087;45.190;5.688;2023-07-13T05:01:58;21.10;99.90
23813;DHT22;12087;45.190;5.688;2023-07-13T05:07:24;21.10;99.90
23813;DHT22;12087;45.190;5.688;2023-07-13T05:12:47;21.20;99.90
23813;DHT22;12087;45.190;5.688;2023-07-13T05:18:09;21.20;99.90
23813;DHT22;12087;45.190;5.688;2023-07-13T05:23:34;21.10;99.90
23813;DHT22;12087;45.190;5.688;2023-07-13T05:28:56;21.10;99.90
23813;DHT22;12087;45.190;5.688;2023-07-13T05:34:19;21.10;99.90
23813;DHT22;12087;45.190;5.688;2023-07-13T05:39:43;21.10;99.90
23813;DHT22;12087;45.190;5.688;2023-07-13T05:45:07;21.10;99.90
23813;DHT22;12087;45.190;5.688;2023-07-13T05:50:29;21.00;99.90
23813;DHT22;12087;45.190;5.688;2023-07-13T05:55:54;21.00;99.90
23813;DHT22;12087;45.190;5.688;2023-07-13T06:01:17;20.90;99.90
23813;DHT22;12087;45.190;5.688;2023-07-13T06:06:41;20.70;99.90
23813;DHT22;12087;45.190;5.688;2023-07-13T06:12:05;20.70;99.90
23813;DHT22;12087;45.190;5.688;2023-07-13T06:17:28;20.70;99.90
23813;DHT22;12087;45.190;5.688;2023-07-13T06:22:50;20.70;99.90
23813;DHT22;12087;45.190;5.688;2023-07-13T06:28:13;20.70;99.90
23813;DHT22;12087;45.190;5.688;2023-07-13T06:33:36;20.70;99.90
23813;DHT22;12087;45.190;5.688;2023-07-13T06:38:58;20.60;99.90
23813;DHT22;12087;45.190;5.688;2023-07-13T06:44:22;20.60;99.90
23813;DHT22;12087;45.190;5.688;2023-07-13T06:49:44;20.60;99.90
23813;DHT22;12087;45.190;5.688;2023-07-13T06:55:07;20.60;99.90
23813;DHT22;12087;45.190;5.688;2023-07-13T07:00:31;20.70;99.90
23813;DHT22;12087;45.190;5.688;2023-07-13T07:05:53;20.70;99.90
23813;DHT22;12087;45.190;5.688;2023-07-13T07:11:18;20.70;99.90
23813;DHT22;12087;45.190;5.688;2023-07-13T07:16:42;20.80;99.90
23813;DHT22;12087;45.190;5.688;2023-07-13T07:22:04;20.90;99.90
23813;DHT22;12087;45.190;5.688;2023-07-13T07:27:27;20.90;99.90
23813;DHT22;12087;45.190;5.688;2023-07-13T07:32:51;21.00;99.90
23813;DHT22;12087;45.190;5.688;2023-07-13T07:38:13;21.00;99.90
23813;DHT22;12087;45.190;5.688;2023-07-13T07:43:36;21.10;99.90
23813;DHT22;12087;45.190;5.688;2023-07-13T07:49:00;21.20;99.90
23813;DHT22;12087;45.190;5.688;2023-07-13T07:54:22;21.20;99.90
23813;DHT22;12087;45.190;5.688;2023-07-13T07:59:44;21.20;99.90
23813;DHT22;12087;45.190;5.688;2023-07-13T08:05:08;21.30;99.90
23813;DHT22;12087;45.190;5.688;2023-07-13T08:10:31;21.30;99.90
23813;DHT22;12087;45.190;5.688;2023-07-13T08:15:53;21.40;99.90
23813;DHT22;12087;45.190;5.688;2023-07-13T08:21:17;21.60;99.90
23813;DHT22;12087;45.190;5.688;2023-07-13T08:26:40;21.80;99.90
23813;DHT22;12087;45.190;5.688;2023-07-13T08:32:04;22.00;99.90
23813;DHT22;12087;45.190;5.688;2023-07-13T08:37:28;22.20;99.90
23813;DHT22;12087;45.190;5.688;2023-07-13T08:42:54;22.50;99.90
23813;DHT22;12087;45.190;5.688;2023-07-13T08:48:26;22.80;99.90
23813;DHT22;12087;45.190;5.688;2023-07-13T08:53:56;23.10;99.90
23813;DHT22;12087;45.190;5.688;2023-07-13T08:59:24;23.20;99.90
23813;DHT22;12087;45.190;5.688;2023-07-13T09:04:50;23.40;99.90
23813;DHT22;12087;45.190;5.688;2023-07-13T09:10:19;23.40;99.90
23813;DHT22;12087;45.190;5.688;2023-07-13T09:15:45;23.40;99.90
23813;DHT22;12087;45.190;5.688;2023-07-13T09:21:10;23.60;99.90
23813;DHT22;12087;45.190;5.688;2023-07-13T09:26:35;23.60;99.90
23813;DHT22;12087;45.190;5.688;2023-07-13T09:32:01;23.60;99.90
23813;DHT22;12087;45.190;5.688;2023-07-13T09:37:29;23.70;99.90
23813;DHT22;12087;45.190;5.688;2023-07-13T09:42:55;24.20;99.90
23813;DHT22;12087;45.190;5.688;2023-07-13T09:48:18;24.20;99.90
23813;DHT22;12087;45.190;5.688;2023-07-13T09:53:42;24.20;99.90
23813;DHT22;12087;45.190;5.688;2023-07-13T09:59:18;24.20;99.90
23813;DHT22;12087;45.190;5.688;2023-07-13T10:04:41;24.40;99.90
23813;DHT22;12087;45.190;5.688;2023-07-13T10:10:14;24.70;99.90
23813;DHT22;12087;45.190;5.688;2023-07-13T10:15:38;25.00;99.90
23813;DHT22;12087;45.190;5.688;2023-07-13T10:21:11;25.10;99.90
23813;DHT22;12087;45.190;5.688;2023-07-13T10:26:34;25.20;99.90
23813;DHT22;12087;45.190;5.688;2023-07-13T10:31:59;25.30;99.90
23813;DHT22;12087;45.190;5.688;2023-07-13T10:37:24;25.50;99.90
23813;DHT22;12087;45.190;5.688;2023-07-13T10:42:50;25.70;99.90
23813;DHT22;12087;45.190;5.688;2023-07-13T10:48:15;25.90;99.90
23813;DHT22;12087;45.190;5.688;2023-07-13T10:53:38;26.10;99.90
23813;DHT22;12087;45.190;5.688;2023-07-13T10:59:09;26.30;99.90
23813;DHT22;12087;45.190;5.688;2023-07-13T11:04:42;26.60;99.90
23813;DHT22;12087;45.190;5.688;2023-07-13T11:10:09;26.90;99.90
23813;DHT22;12087;45.190;5.688;2023-07-13T11:15:49;27.00;99.90
23813;DHT22;12087;45.190;5.688;2023-07-13T11:21:17;27.20;99.90
23813;DHT22;12087;45.190;5.688;2023-07-13T11:26:41;27.20;99.90
23813;DHT22;12087;45.190;5.688;2023-07-13T11:32:22;27.60;99.90
23813;DHT22;12087;45.190;5.688;2023-07-13T11:37:48;27.90;99.90
23813;DHT22;12087;45.190;5.688;2023-07-13T11:43:13;28.40;99.10
23813;DHT22;12087;45.190;5.688;2023-07-13T11:48:37;28.60;97.20
23813;DHT22;12087;45.190;5.688;2023-07-13T11:54:05;28.80;96.40
23813;DHT22;12087;45.190;5.688;2023-07-13T11:59:30;29.10;96.00
23813;DHT22;12087;45.190;5.688;2023-07-13T12:04:54;29.10;94.10
23813;DHT22;12087;45.190;5.688;2023-07-13T12:10:20;29.30;93.70
23813;DHT22;12087;45.190;5.688;2023-07-13T12:15:45;29.50;91.90
23813;DHT22;12087;45.190;5.688;2023-07-13T12:21:12;29.50;92.40
23813;DHT22;12087;45.190;5.688;2023-07-13T12:26:36;29.70;92.30
23813;DHT22;12087;45.190;5.688;2023-07-13T12:31:59;30.10;89.50
23813;DHT22;12087;45.190;5.688;2023-07-13T12:37:21;30.00;90.00
23813;DHT22;12087;45.190;5.688;2023-07-13T12:42:46;29.90;90.20
23813;DHT22;12087;45.190;5.688;2023-07-13T12:48:15;30.00;89.70
23813;DHT22;12087;45.190;5.688;2023-07-13T12:53:41;30.10;87.90
23813;DHT22;12087;45.190;5.688;2023-07-13T12:59:05;29.80;85.90
23813;DHT22;12087;45.190;5.688;2023-07-13T13:04:27;30.00;85.50
23813;DHT22;12087;45.190;5.688;2023-07-13T13:09:50;30.10;82.80
23813;DHT22;12087;45.190;5.688;2023-07-13T13:15:15;30.10;79.40
23813;DHT22;12087;45.190;5.688;2023-07-13T13:20:38;30.10;80.00
23813;DHT22;12087;45.190;5.688;2023-07-13T13:26:00;30.00;77.50
23813;DHT22;12087;45.190;5.688;2023-07-13T13:31:25;29.90;75.30
23813;DHT22;12087;45.190;5.688;2023-07-13T13:36:47;29.90;75.80
23813;DHT22;12087;45.190;5.688;2023-07-13T13:42:10;30.00;73.80
23813;DHT22;12087;45.190;5.688;2023-07-13T13:47:35;30.20;74.10
23813;DHT22;12087;45.190;5.688;2023-07-13T13:52:58;30.10;75.00
23813;DHT22;12087;45.190;5.688;2023-07-13T13:58:22;30.20;75.40
23813;DHT22;12087;45.190;5.688;2023-07-13T14:03:46;30.30;72.80
23813;DHT22;12087;45.190;5.688;2023-07-13T14:09:10;30.50;73.90
23813;DHT22;12087;45.190;5.688;2023-07-13T14:14:33;30.40;72.10
23813;DHT22;12087;45.190;5.688;2023-07-13T14:19:57;30.30;72.70
23813;DHT22;12087;45.190;5.688;2023-07-13T14:25:20;30.30;71.40
23813;DHT22;12087;45.190;5.688;2023-07-13T14:30:42;30.10;72.50
23813;DHT22;12087;45.190;5.688;2023-07-13T14:36:21;30.00;72.40
23813;DHT22;12087;45.190;5.688;2023-07-13T14:41:45;29.80;74.50
23813;DHT22;12087;45.190;5.688;2023-07-13T14:47:08;29.80;72.10
23813;DHT22;12087;45.190;5.688;2023-07-13T14:52:33;29.60;73.40
23813;DHT22;12087;45.190;5.688;2023-07-13T14:57:56;29.30;73.90
23813;DHT22;12087;45.190;5.688;2023-07-13T15:03:20;29.20;75.60
23813;DHT22;12087;45.190;5.688;2023-07-13T15:08:45;29.10;75.30
23813;DHT22;12087;45.190;5.688;2023-07-13T15:14:07;28.90;74.30
23813;DHT22;12087;45.190;5.688;2023-07-13T15:19:29;28.80;76.00
23813;DHT22;12087;45.190;5.688;2023-07-13T15:24:54;28.80;75.20
23813;DHT22;12087;45.190;5.688;2023-07-13T15:30:16;28.60;73.50
23813;DHT22;12087;45.190;5.688;2023-07-13T15:35:39;28.50;75.40
23813;DHT22;12087;45.190;5.688;2023-07-13T15:41:11;28.30;75.20
23813;DHT22;12087;45.190;5.688;2023-07-13T15:46:37;28.20;75.30
23813;DHT22;12087;45.190;5.688;2023-07-13T15:51:59;28.00;72.40
23813;DHT22;12087;45.190;5.688;2023-07-13T15:57:23;28.00;74.80
23813;DHT22;12087;45.190;5.688;2023-07-13T16:02:45;27.90;72.30
23813;DHT22;12087;45.190;5.688;2023-07-13T16:08:25;27.80;73.40
23813;DHT22;12087;45.190;5.688;2023-07-13T16:13:50;27.70;73.60
23813;DHT22;12087;45.190;5.688;2023-07-13T16:19:15;27.70;74.30
23813;DHT22;12087;45.190;5.688;2023-07-13T16:24:38;27.60;72.60
23813;DHT22;12087;45.190;5.688;2023-07-13T16:30:11;27.60;75.10
23813;DHT22;12087;45.190;5.688;2023-07-13T16:35:35;27.50;73.60
23813;DHT22;12087;45.190;5.688;2023-07-13T16:40:58;27.40;73.90
23813;DHT22;12087;45.190;5.688;2023-07-13T16:46:23;27.30;73.90
23813;DHT22;12087;45.190;5.688;2023-07-13T16:51:45;27.20;73.10
23813;DHT22;12087;45.190;5.688;2023-07-13T16:57:13;27.10;74.80
23813;DHT22;12087;45.190;5.688;2023-07-13T17:02:38;27.10;74.10
23813;DHT22;12087;45.190;5.688;2023-07-13T17:08:03;27.00;73.90
23813;DHT22;12087;45.190;5.688;2023-07-13T17:13:34;26.90;72.40
23813;DHT22;12087;45.190;5.688;2023-07-13T17:18:58;26.90;73.90
23813;DHT22;12087;45.190;5.688;2023-07-13T17:24:23;26.80;74.10
23813;DHT22;12087;45.190;5.688;2023-07-13T17:29:45;26.70;74.20
23813;DHT22;12087;45.190;5.688;2023-07-13T17:35:24;26.50;73.70
23813;DHT22;12087;45.190;5.688;2023-07-13T17:40:47;26.40;74.80
23813;DHT22;12087;45.190;5.688;2023-07-13T17:46:12;26.40;74.50
23813;DHT22;12087;45.190;5.688;2023-07-13T17:51:36;26.20;74.90
23813;DHT22;12087;45.190;5.688;2023-07-13T17:56:58;26.10;73.10
23813;DHT22;12087;45.190;5.688;2023-07-13T18:02:21;26.00;74.30
23813;DHT22;12087;45.190;5.688;2023-07-13T18:07:46;26.00;74.50
23813;DHT22;12087;45.190;5.688;2023-07-13T18:13:08;25.90;73.40
23813;DHT22;12087;45.190;5.688;2023-07-13T18:18:32;25.80;73.40
23813;DHT22;12087;45.190;5.688;2023-07-13T18:23:57;25.80;74.40
23813;DHT22;12087;45.190;5.688;2023-07-13T18:29:20;25.60;74.60
23813;DHT22;12087;45.190;5.688;2023-07-13T18:34:43;25.60;75.70
23813;DHT22;12087;45.190;5.688;2023-07-13T18:40:13;25.50;74.60
23813;DHT22;12087;45.190;5.688;2023-07-13T18:45:36;25.50;75.50
23813;DHT22;12087;45.190;5.688;2023-07-13T18:50:58;25.30;75.60
23813;DHT22;12087;45.190;5.688;2023-07-13T18:56:23;25.30;76.20
23813;DHT22;12087;45.190;5.688;2023-07-13T19:01:45;25.20;75.40
23813;DHT22;12087;45.190;5.688;2023-07-13T19:07:09;25.10;75.90
23813;DHT22;12087;45.190;5.688;2023-07-13T19:12:37;25.10;76.00
23813;DHT22;12087;45.190;5.688;2023-07-13T19:18:00;25.00;77.00
23813;DHT22;12087;45.190;5.688;2023-07-13T19:23:26;24.90;78.30
23813;DHT22;12087;45.190;5.688;2023-07-13T19:28:51;24.80;79.10
23813;DHT22;12087;45.190;5.688;2023-07-13T19:34:18;24.70;79.10
23813;DHT22;12087;45.190;5.688;2023-07-13T19:39:41;24.60;79.10
23813;DHT22;12087;45.190;5.688;2023-07-13T19:45:15;24.50;79.20
23813;DHT22;12087;45.190;5.688;2023-07-13T19:50:39;24.40;79.70
23813;DHT22;12087;45.190;5.688;2023-07-13T19:56:02;24.30;80.50
23813;DHT22;12087;45.190;5.688;2023-07-13T20:40:13;23.80;83.70
23813;DHT22;12087;45.190;5.688;2023-07-13T20:45:36;23.80;85.30
23813;DHT22;12087;45.190;5.688;2023-07-13T20:51:00;23.60;84.80
23813;DHT22;12087;45.190;5.688;2023-07-13T20:56:25;23.50;86.10
23813;DHT22;12087;45.190;5.688;2023-07-13T21:01:48;23.40;85.90
23813;DHT22;12087;45.190;5.688;2023-07-13T21:07:14;23.40;87.30
23813;DHT22;12087;45.190;5.688;2023-07-13T21:12:39;23.30;86.40
23813;DHT22;12087;45.190;5.688;2023-07-13T21:18:01;23.20;87.20
23813;DHT22;12087;45.190;5.688;2023-07-13T21:23:28;23.10;87.10
23813;DHT22;12087;45.190;5.688;2023-07-13T21:28:51;23.00;87.30
23813;DHT22;12087;45.190;5.688;2023-07-13T21:34:16;22.90;87.40
23813;DHT22;12087;45.190;5.688;2023-07-13T21:39:40;22.80;87.10
23813;DHT22;12087;45.190;5.688;2023-07-13T21:45:08;22.80;88.20
23813;DHT22;12087;45.190;5.688;2023-07-13T21:50:39;22.70;88.40
23813;DHT22;12087;45.190;5.688;2023-07-13T21:56:03;22.70;89.60
23813;DHT22;12087;45.190;5.688;2023-07-13T22:01:30;22.60;89.30
23813;DHT22;12087;45.190;5.688;2023-07-13T22:06:53;22.60;89.30
23813;DHT22;12087;45.190;5.688;2023-07-13T22:12:18;22.50;89.80
23813;DHT22;12087;45.190;5.688;2023-07-13T22:17:44;22.50;90.10
23813;DHT22;12087;45.190;5.688;2023-07-13T22:23:18;22.40;90.30
23813;DHT22;12087;45.190;5.688;2023-07-13T22:28:42;22.30;90.20
23813;DHT22;12087;45.190;5.688;2023-07-13T22:34:07;22.30;90.00
23813;DHT22;12087;45.190;5.688;2023-07-13T22:39:32;22.30;90.40
23813;DHT22;12087;45.190;5.688;2023-07-13T22:44:56;22.20;90.20
23813;DHT22;12087;45.190;5.688;2023-07-13T22:50:18;22.20;90.50
23813;DHT22;12087;45.190;5.688;2023-07-13T22:55:51;22.10;90.60
23813;DHT22;12087;45.190;5.688;2023-07-13T23:39:52;21.80;93.10
